Mega Smeralda — ICIU — position and weather

sailwx.info

Track history (hours):
 
Tides and Currents Weather Stations Pressure Air Temp Water Temp Dewpoint Dewpoint Depression Visibility Wind Speed Wind Dir Waves Ship Positions

Mega Smeralda

Last reported at 2017-Nov-16 20:18 UTC. Time now 2017-Nov-17 19:57 UTC.
Position N 43°04' E 005°58'.

Length 171 m; draft 6.3 m.

Type: Passenger vessel. MMSI: 247228600.

Date/timePositionNaut miles runAvg speedWind from/ knotsBaromVisibWave heightAir tempDewpointWater temp
2017-Nov-16 20:18N 43°04' E 005°58'3 9.7
2017-Nov-16 20:00N 43°07' E 005°55'1 1.2
2017-Nov-16 19:29N 43°07' E 005°56'0 0.0
2017-Nov-16 18:59N 43°07' E 005°56'0 0.0
2017-Nov-16 18:26N 43°07' E 005°56'0 0.0
2017-Nov-16 18:00N 43°07' E 005°56'0 0.0
2017-Nov-16 17:29N 43°07' E 005°56'0 0.0
2017-Nov-16 16:59N 43°07' E 005°56'0 0.0
2017-Nov-16 16:29N 43°07' E 005°56'0 0.0
2017-Nov-16 15:59N 43°07' E 005°56'0 0.0
2017-Nov-16 15:29N 43°07' E 005°56'0 0.0
2017-Nov-16 14:59N 43°07' E 005°56'0 0.0
2017-Nov-16 14:29N 43°07' E 005°56'0 0.0
2017-Nov-16 13:56N 43°07' E 005°56'0 0.0
2017-Nov-16 13:26N 43°07' E 005°56'0 0.0
2017-Nov-16 12:56N 43°07' E 005°56'0 0.0
2017-Nov-16 12:26N 43°07' E 005°56'0 0.0
2017-Nov-16 11:50N 43°07' E 005°56'0 0.0
2017-Nov-16 11:26N 43°07' E 005°56'0 0.0
2017-Nov-16 10:59N 43°07' E 005°56'0 0.0
2017-Nov-16 10:20N 43°07' E 005°56'0 0.0
2017-Nov-16 09:59N 43°07' E 005°56'0 0.0
2017-Nov-16 09:20N 43°07' E 005°56'0 0.0
2017-Nov-16 08:59N 43°07' E 005°56'0 0.0
2017-Nov-16 08:30N 43°07' E 005°56'0 0.0
2017-Nov-16 07:59N 43°07' E 005°56'0 0.0
2017-Nov-16 07:29N 43°07' E 005°56'0 0.0
2017-Nov-16 06:56N 43°07' E 005°56'0 0.0
2017-Nov-16 06:29N 43°07' E 005°56'0 0.0
2017-Nov-16 06:00N 43°07' E 005°56'2 4.8
2017-Nov-16 05:30N 43°05' E 005°58'61 2.1
2017-Nov-14 23:49N 42°57' E 007°21'618.3
2017-Nov-14 23:30N 42°57' E 007°13'5517.1
2017-Nov-14 20:18N 43°04' E 005°59'311.0
2017-Nov-14 20:01N 43°06' E 005°55'1 1.7
2017-Nov-14 19:28N 43°07' E 005°56'0 0.0
2017-Nov-14 18:58N 43°07' E 005°56'0 0.0
2017-Nov-14 18:28N 43°07' E 005°56'0 0.0
2017-Nov-14 17:58N 43°07' E 005°56'0 0.0
2017-Nov-14 17:28N 43°07' E 005°56'0 0.0
2017-Nov-14 16:58N 43°07' E 005°56'0 0.0
2017-Nov-14 16:28N 43°07' E 005°56'0 0.0
2017-Nov-14 15:58N 43°07' E 005°56'0 0.0
2017-Nov-14 15:25N 43°07' E 005°56'0 0.0
2017-Nov-14 14:52N 43°07' E 005°56'0 0.0
2017-Nov-14 14:28N 43°07' E 005°56'0 0.0
2017-Nov-14 13:58N 43°07' E 005°56'0 0.0
2017-Nov-14 13:28N 43°07' E 005°56'0 0.0
2017-Nov-14 12:58N 43°07' E 005°56'0 0.0
2017-Nov-14 12:28N 43°07' E 005°56'0 0.3
2017-Nov-14 11:58N 43°07' E 005°56'0 0.2
2017-Nov-14 11:30N 43°07' E 005°56'0 0.0
2017-Nov-14 11:00N 43°07' E 005°56'0 0.0
2017-Nov-14 10:30N 43°07' E 005°56'0 0.0
2017-Nov-14 10:00N 43°07' E 005°56'0 0.0
2017-Nov-14 09:27N 43°07' E 005°56'0 0.0
2017-Nov-14 08:57N 43°07' E 005°56'0 0.0
2017-Nov-14 08:30N 43°07' E 005°56'0 0.0
2017-Nov-14 08:00N 43°07' E 005°56'2 3.4
2017-Nov-14 07:30N 43°05' E 005°56'4616.9
2017-Nov-14 04:46N 43°04' E 006°59'518.3
2017-Nov-14 04:31N 43°05' E 007°06'1218.5
2017-Nov-14 03:52N 43°07' E 007°22'918.3
2017-Nov-14 03:23N 43°08' E 007°34'69 2.2
2017-Nov-12 20:31N 43°04' E 005°59'018.3
2017-Nov-12 20:30N 43°04' E 005°58'3 6.5
2017-Nov-12 20:00N 43°07' E 005°56'0 0.0
2017-Nov-12 19:30N 43°07' E 005°56'0 0.0
2017-Nov-12 19:00N 43°07' E 005°56'0 0.0
2017-Nov-12 18:27N 43°07' E 005°56'0 0.0
2017-Nov-12 18:00N 43°07' E 005°56'0 0.0
2017-Nov-12 17:30N 43°07' E 005°56'0 0.0
2017-Nov-12 17:00N 43°07' E 005°56'0 0.0
2017-Nov-12 16:30N 43°07' E 005°56'0 0.0
2017-Nov-12 16:00N 43°07' E 005°56'0 0.0
2017-Nov-12 15:30N 43°07' E 005°56'0 0.0
2017-Nov-12 15:00N 43°07' E 005°56'0 0.0
2017-Nov-12 14:30N 43°07' E 005°56'0 0.0
2017-Nov-12 14:00N 43°07' E 005°56'0 0.0
2017-Nov-12 13:30N 43°07' E 005°56'0 0.0
2017-Nov-12 13:00N 43°07' E 005°56'0 0.0
2017-Nov-12 12:30N 43°07' E 005°56'0 0.0
2017-Nov-12 12:00N 43°07' E 005°56'0 0.0
2017-Nov-12 11:30N 43°07' E 005°56'0 0.0
2017-Nov-12 11:00N 43°07' E 005°56'0 0.0
2017-Nov-12 10:30N 43°07' E 005°56'0 0.0
2017-Nov-12 10:00N 43°07' E 005°56'0 0.0
2017-Nov-12 09:30N 43°07' E 005°56'0 0.0
2017-Nov-12 09:00N 43°07' E 005°56'0 0.0
2017-Nov-12 08:30N 43°07' E 005°56'0 0.0
2017-Nov-12 08:00N 43°07' E 005°56'0 0.0
2017-Nov-12 07:30N 43°07' E 005°56'0 0.0
2017-Nov-12 07:00N 43°07' E 005°56'4612.9
2017-Nov-12 03:28N 43°05' E 006°58'715.7
2017-Nov-12 03:00N 43°05' E 007°08'8715.4
2017-Nov-11 21:24N 43°05' E 009°07'816.2
2017-Nov-11 20:52N 43°04' E 009°18'716.0
2017-Nov-11 20:25N 43°03' E 009°28'17 4.1
2017-Nov-11 16:20N 42°54' E 009°47'720.2
2017-Nov-11 16:00N 42°58' E 009°55'1019.8
2017-Nov-11 15:30N 43°07' E 010°01'1020.2
2017-Nov-11 15:00N 43°16' E 010°06'1019.7
2017-Nov-11 14:30N 43°25' E 010°10'816.3
2017-Nov-11 14:00N 43°32' E 010°16'2 3.0
2017-Nov-11 13:29N 43°33' E 010°18'0 0.0
2017-Nov-11 12:56N 43°33' E 010°18'0 0.0
2017-Nov-11 12:29N 43°33' E 010°18'0 0.0
2017-Nov-11 12:00N 43°33' E 010°18'1 1.1
2017-Nov-11 11:30N 43°33' E 010°17'3 6.7
2017-Nov-11 11:00N 43°30' E 010°14'814.8
2017-Nov-11 10:29N 43°23' E 010°10'816.6
2017-Nov-11 09:59N 43°15' E 010°06'916.7
2017-Nov-11 09:25N 43°07' E 010°01'17713.5
2017-Nov-10 20:15N 43°04' E 005°58'311.7
2017-Nov-10 20:00N 43°06' E 005°55'1 2.1
2017-Nov-10 19:29N 43°07' E 005°56'0 0.0
2017-Nov-10 18:59N 43°07' E 005°56'0 0.0
2017-Nov-10 18:29N 43°07' E 005°56'0 0.0
2017-Nov-10 17:59N 43°07' E 005°56'0 0.0
2017-Nov-10 17:29N 43°07' E 005°56'0 0.0
2017-Nov-10 16:59N 43°07' E 005°56'0 0.0
2017-Nov-10 16:29N 43°07' E 005°56'0 0.0
2017-Nov-10 15:59N 43°07' E 005°56'0 0.0
2017-Nov-10 15:29N 43°07' E 005°56'0 0.0
2017-Nov-10 14:59N 43°07' E 005°56'0 0.0
2017-Nov-10 14:29N 43°07' E 005°56'0 0.0
2017-Nov-10 13:59N 43°07' E 005°56'0 0.0
2017-Nov-10 13:29N 43°07' E 005°56'0 0.0
2017-Nov-10 12:59N 43°07' E 005°56'0 0.0
2017-Nov-10 12:29N 43°07' E 005°56'0 0.0
2017-Nov-10 11:59N 43°07' E 005°56'0 0.0
2017-Nov-10 11:29N 43°07' E 005°56'0 0.0
2017-Nov-10 10:59N 43°07' E 005°56'0 0.0
2017-Nov-10 10:23N 43°07' E 005°56'0 0.0
2017-Nov-10 09:59N 43°07' E 005°56'0 0.0
2017-Nov-10 09:26N 43°07' E 005°56'0 0.0
2017-Nov-10 08:59N 43°07' E 005°56'0 0.0
2017-Nov-10 08:29N 43°07' E 005°56'0 0.0
2017-Nov-10 07:59N 43°07' E 005°56'0 0.0
2017-Nov-10 07:29N 43°07' E 005°56'0 0.0
2017-Nov-10 06:59N 43°07' E 005°56'0 0.0
2017-Nov-10 06:29N 43°07' E 005°56'0 0.1
2017-Nov-10 06:00N 43°07' E 005°56'3 5.6
2017-Nov-10 05:30N 43°05' E 005°58'1 0.0
2017-Nov-08 20:37N 43°04' E 005°59'114.4
2017-Nov-08 20:31N 43°05' E 005°58'2 4.4
2017-Nov-08 20:00N 43°07' E 005°56'0 0.0
2017-Nov-08 14:24N 43°07' E 005°56'0 0.0
2017-Nov-08 13:54N 43°07' E 005°56'0 0.0
2017-Nov-08 13:30N 43°07' E 005°56'0 0.0
2017-Nov-08 12:24N 43°07' E 005°56'0 0.0
2017-Nov-08 12:00N 43°07' E 005°56'0 0.0
2017-Nov-08 11:24N 43°07' E 005°56'0 0.0
2017-Nov-08 11:00N 43°07' E 005°56'0 0.0
2017-Nov-08 10:30N 43°07' E 005°56'0 0.0
2017-Nov-08 10:00N 43°07' E 005°56'0 0.0
2017-Nov-08 09:30N 43°07' E 005°56'0 0.0
2017-Nov-08 09:00N 43°07' E 005°56'0 0.0
2017-Nov-08 08:24N 43°07' E 005°56'0 0.0
2017-Nov-08 06:36N 43°07' E 005°56'0 0.0
2017-Nov-08 06:19N 43°07' E 005°56'0 1.4
2017-Nov-08 06:00N 43°07' E 005°56'3 0.1
2017-Nov-06 20:55N 43°04' E 005°58'3 7.9
2017-Nov-06 20:30N 43°07' E 005°56'  
Track history (hours):
 
Tides and Currents Weather Stations Pressure Air Temp Water Temp Dewpoint Dewpoint Depression Visibility Wind Speed Wind Dir Waves Ship Positions

Mega Smeralda

Last reported at 2017-Nov-16 20:18 UTC. Time now 2017-Nov-17 19:57 UTC.
Position N 43°04' E 005°58'.

Length 171 m; draft 6.3 m.

Type: Passenger vessel. MMSI: 247228600.

Date/timePositionNaut miles runAvg speedWind from/ knotsBaromVisibWave heightAir tempDewpointWater temp
2017-Nov-16 20:18N 43°04' E 005°58'3 9.7
2017-Nov-16 20:00N 43°07' E 005°55'1 1.2
2017-Nov-16 19:29N 43°07' E 005°56'0 0.0
2017-Nov-16 18:59N 43°07' E 005°56'0 0.0
2017-Nov-16 18:26N 43°07' E 005°56'0 0.0
2017-Nov-16 18:00N 43°07' E 005°56'0 0.0
2017-Nov-16 17:29N 43°07' E 005°56'0 0.0
2017-Nov-16 16:59N 43°07' E 005°56'0 0.0
2017-Nov-16 16:29N 43°07' E 005°56'0 0.0
2017-Nov-16 15:59N 43°07' E 005°56'0 0.0
2017-Nov-16 15:29N 43°07' E 005°56'0 0.0
2017-Nov-16 14:59N 43°07' E 005°56'0 0.0
2017-Nov-16 14:29N 43°07' E 005°56'0 0.0
2017-Nov-16 13:56N 43°07' E 005°56'0 0.0
2017-Nov-16 13:26N 43°07' E 005°56'0 0.0
2017-Nov-16 12:56N 43°07' E 005°56'0 0.0
2017-Nov-16 12:26N 43°07' E 005°56'0 0.0
2017-Nov-16 11:50N 43°07' E 005°56'0 0.0
2017-Nov-16 11:26N 43°07' E 005°56'0 0.0
2017-Nov-16 10:59N 43°07' E 005°56'0 0.0
2017-Nov-16 10:20N 43°07' E 005°56'0 0.0
2017-Nov-16 09:59N 43°07' E 005°56'0 0.0
2017-Nov-16 09:20N 43°07' E 005°56'0 0.0
2017-Nov-16 08:59N 43°07' E 005°56'0 0.0
2017-Nov-16 08:30N 43°07' E 005°56'0 0.0
2017-Nov-16 07:59N 43°07' E 005°56'0 0.0
2017-Nov-16 07:29N 43°07' E 005°56'0 0.0
2017-Nov-16 06:56N 43°07' E 005°56'0 0.0
2017-Nov-16 06:29N 43°07' E 005°56'0 0.0
2017-Nov-16 06:00N 43°07' E 005°56'2 4.8
2017-Nov-16 05:30N 43°05' E 005°58'61 2.1
2017-Nov-14 23:49N 42°57' E 007°21'618.3
2017-Nov-14 23:30N 42°57' E 007°13'5517.1
2017-Nov-14 20:18N 43°04' E 005°59'311.0
2017-Nov-14 20:01N 43°06' E 005°55'1 1.7
2017-Nov-14 19:28N 43°07' E 005°56'0 0.0
2017-Nov-14 18:58N 43°07' E 005°56'0 0.0
2017-Nov-14 18:28N 43°07' E 005°56'0 0.0
2017-Nov-14 17:58N 43°07' E 005°56'0 0.0
2017-Nov-14 17:28N 43°07' E 005°56'0 0.0
2017-Nov-14 16:58N 43°07' E 005°56'0 0.0
2017-Nov-14 16:28N 43°07' E 005°56'0 0.0
2017-Nov-14 15:58N 43°07' E 005°56'0 0.0
2017-Nov-14 15:25N 43°07' E 005°56'0 0.0
2017-Nov-14 14:52N 43°07' E 005°56'0 0.0
2017-Nov-14 14:28N 43°07' E 005°56'0 0.0
2017-Nov-14 13:58N 43°07' E 005°56'0 0.0
2017-Nov-14 13:28N 43°07' E 005°56'0 0.0
2017-Nov-14 12:58N 43°07' E 005°56'0 0.0
2017-Nov-14 12:28N 43°07' E 005°56'0 0.3
2017-Nov-14 11:58N 43°07' E 005°56'0 0.2
2017-Nov-14 11:30N 43°07' E 005°56'0 0.0
2017-Nov-14 11:00N 43°07' E 005°56'0 0.0
2017-Nov-14 10:30N 43°07' E 005°56'0 0.0
2017-Nov-14 10:00N 43°07' E 005°56'0 0.0
2017-Nov-14 09:27N 43°07' E 005°56'0 0.0
2017-Nov-14 08:57N 43°07' E 005°56'0 0.0
2017-Nov-14 08:30N 43°07' E 005°56'0 0.0
2017-Nov-14 08:00N 43°07' E 005°56'2 3.4
2017-Nov-14 07:30N 43°05' E 005°56'4616.9
2017-Nov-14 04:46N 43°04' E 006°59'518.3
2017-Nov-14 04:31N 43°05' E 007°06'1218.5
2017-Nov-14 03:52N 43°07' E 007°22'918.3
2017-Nov-14 03:23N 43°08' E 007°34'69 2.2
2017-Nov-12 20:31N 43°04' E 005°59'018.3
2017-Nov-12 20:30N 43°04' E 005°58'3 6.5
2017-Nov-12 20:00N 43°07' E 005°56'0 0.0
2017-Nov-12 19:30N 43°07' E 005°56'0 0.0
2017-Nov-12 19:00N 43°07' E 005°56'0 0.0
2017-Nov-12 18:27N 43°07' E 005°56'0 0.0
2017-Nov-12 18:00N 43°07' E 005°56'0 0.0
2017-Nov-12 17:30N 43°07' E 005°56'0 0.0
2017-Nov-12 17:00N 43°07' E 005°56'0 0.0
2017-Nov-12 16:30N 43°07' E 005°56'0 0.0
2017-Nov-12 16:00N 43°07' E 005°56'0 0.0
2017-Nov-12 15:30N 43°07' E 005°56'0 0.0
2017-Nov-12 15:00N 43°07' E 005°56'0 0.0
2017-Nov-12 14:30N 43°07' E 005°56'0 0.0
2017-Nov-12 14:00N 43°07' E 005°56'0 0.0
2017-Nov-12 13:30N 43°07' E 005°56'0 0.0
2017-Nov-12 13:00N 43°07' E 005°56'0 0.0
2017-Nov-12 12:30N 43°07' E 005°56'0 0.0
2017-Nov-12 12:00N 43°07' E 005°56'0 0.0
2017-Nov-12 11:30N 43°07' E 005°56'0 0.0
2017-Nov-12 11:00N 43°07' E 005°56'0 0.0
2017-Nov-12 10:30N 43°07' E 005°56'0 0.0
2017-Nov-12 10:00N 43°07' E 005°56'0 0.0
2017-Nov-12 09:30N 43°07' E 005°56'0 0.0
2017-Nov-12 09:00N 43°07' E 005°56'0 0.0
2017-Nov-12 08:30N 43°07' E 005°56'0 0.0
2017-Nov-12 08:00N 43°07' E 005°56'0 0.0
2017-Nov-12 07:30N 43°07' E 005°56'0 0.0
2017-Nov-12 07:00N 43°07' E 005°56'4612.9
2017-Nov-12 03:28N 43°05' E 006°58'715.7
2017-Nov-12 03:00N 43°05' E 007°08'8715.4
2017-Nov-11 21:24N 43°05' E 009°07'816.2
2017-Nov-11 20:52N 43°04' E 009°18'716.0
2017-Nov-11 20:25N 43°03' E 009°28'17 4.1
2017-Nov-11 16:20N 42°54' E 009°47'720.2
2017-Nov-11 16:00N 42°58' E 009°55'1019.8
2017-Nov-11 15:30N 43°07' E 010°01'1020.2
2017-Nov-11 15:00N 43°16' E 010°06'1019.7
2017-Nov-11 14:30N 43°25' E 010°10'816.3
2017-Nov-11 14:00N 43°32' E 010°16'2 3.0
2017-Nov-11 13:29N 43°33' E 010°18'0 0.0
2017-Nov-11 12:56N 43°33' E 010°18'0 0.0
2017-Nov-11 12:29N 43°33' E 010°18'0 0.0
2017-Nov-11 12:00N 43°33' E 010°18'1 1.1
2017-Nov-11 11:30N 43°33' E 010°17'3 6.7
2017-Nov-11 11:00N 43°30' E 010°14'814.8
2017-Nov-11 10:29N 43°23' E 010°10'816.6
2017-Nov-11 09:59N 43°15' E 010°06'916.7
2017-Nov-11 09:25N 43°07' E 010°01'17713.5
2017-Nov-10 20:15N 43°04' E 005°58'311.7
2017-Nov-10 20:00N 43°06' E 005°55'1 2.1
2017-Nov-10 19:29N 43°07' E 005°56'0 0.0
2017-Nov-10 18:59N 43°07' E 005°56'0 0.0
2017-Nov-10 18:29N 43°07' E 005°56'0 0.0
2017-Nov-10 17:59N 43°07' E 005°56'0 0.0
2017-Nov-10 17:29N 43°07' E 005°56'0 0.0
2017-Nov-10 16:59N 43°07' E 005°56'0 0.0
2017-Nov-10 16:29N 43°07' E 005°56'0 0.0
2017-Nov-10 15:59N 43°07' E 005°56'0 0.0
2017-Nov-10 15:29N 43°07' E 005°56'0 0.0
2017-Nov-10 14:59N 43°07' E 005°56'0 0.0
2017-Nov-10 14:29N 43°07' E 005°56'0 0.0
2017-Nov-10 13:59N 43°07' E 005°56'0 0.0
2017-Nov-10 13:29N 43°07' E 005°56'0 0.0
2017-Nov-10 12:59N 43°07' E 005°56'0 0.0
2017-Nov-10 12:29N 43°07' E 005°56'0 0.0
2017-Nov-10 11:59N 43°07' E 005°56'0 0.0
2017-Nov-10 11:29N 43°07' E 005°56'0 0.0
2017-Nov-10 10:59N 43°07' E 005°56'0 0.0
2017-Nov-10 10:23N 43°07' E 005°56'0 0.0
2017-Nov-10 09:59N 43°07' E 005°56'0 0.0
2017-Nov-10 09:26N 43°07' E 005°56'0 0.0
2017-Nov-10 08:59N 43°07' E 005°56'0 0.0
2017-Nov-10 08:29N 43°07' E 005°56'0 0.0
2017-Nov-10 07:59N 43°07' E 005°56'0 0.0
2017-Nov-10 07:29N 43°07' E 005°56'0 0.0
2017-Nov-10 06:59N 43°07' E 005°56'0 0.0
2017-Nov-10 06:29N 43°07' E 005°56'0 0.1
2017-Nov-10 06:00N 43°07' E 005°56'3 5.6
2017-Nov-10 05:30N 43°05' E 005°58'1 0.0
2017-Nov-08 20:37N 43°04' E 005°59'114.4
2017-Nov-08 20:31N 43°05' E 005°58'2 4.4
2017-Nov-08 20:00N 43°07' E 005°56'0 0.0
2017-Nov-08 14:24N 43°07' E 005°56'0 0.0
2017-Nov-08 13:54N 43°07' E 005°56'0 0.0
2017-Nov-08 13:30N 43°07' E 005°56'0 0.0
2017-Nov-08 12:24N 43°07' E 005°56'0 0.0
2017-Nov-08 12:00N 43°07' E 005°56'0 0.0
2017-Nov-08 11:24N 43°07' E 005°56'0 0.0
2017-Nov-08 11:00N 43°07' E 005°56'0 0.0
2017-Nov-08 10:30N 43°07' E 005°56'0 0.0
2017-Nov-08 10:00N 43°07' E 005°56'0 0.0
2017-Nov-08 09:30N 43°07' E 005°56'0 0.0
2017-Nov-08 09:00N 43°07' E 005°56'0 0.0
2017-Nov-08 08:24N 43°07' E 005°56'0 0.0
2017-Nov-08 06:36N 43°07' E 005°56'0 0.0
2017-Nov-08 06:19N 43°07' E 005°56'0 1.4
2017-Nov-08 06:00N 43°07' E 005°56'3 0.1
2017-Nov-06 20:55N 43°04' E 005°58'3 7.9
2017-Nov-06 20:30N 43°07' E 005°56'  

Dump ship's entire track history